Afric Star — A8KJ8 — position and weather

sailwx.info

Track history (hours):
 
Tides and Currents Weather Stations Pressure Air Temp Water Temp Dewpoint Dewpoint Depression Visibility Wind Speed Wind Dir Waves Ship Positions

Afric Star

Last reported at 2016-Feb-06 10:31 UTC. Time now 2016-Feb-06 13:36 UTC.
Position N 58°21' E 011°54'.

Length 158 m; draft 7.2 m.

Type: Cargo ship. MMSI: 636013069.

Date/timePositionNaut miles runAvg speedWind from/ knotsBaromVisibWave heightAir tempDewpointWater temp
2016-Feb-06 10:31N 58°21' E 011°54'0 0.0
2016-Feb-06 03:19N 58°21' E 011°54'0 0.0
2016-Feb-05 15:28N 58°21' E 011°54'0 0.0
2016-Feb-05 14:28N 58°21' E 011°54'0 0.0
2016-Feb-05 10:28N 58°21' E 011°54'0 0.0
2016-Feb-05 09:28N 58°21' E 011°54'0 0.0
2016-Feb-05 08:25N 58°21' E 011°54'0 0.0
2016-Feb-05 07:28N 58°21' E 011°54'0 0.0
2016-Feb-05 06:16N 58°21' E 011°54'0 0.0
2016-Feb-05 05:28N 58°21' E 011°54'0 0.0
2016-Feb-05 04:22N 58°21' E 011°54'0 0.0
2016-Feb-05 03:31N 58°21' E 011°54'0 0.0
2016-Feb-05 02:22N 58°21' E 011°54'0 0.0
2016-Feb-05 01:28N 58°21' E 011°54'0 0.0
2016-Feb-05 00:28N 58°21' E 011°54'0 0.0
2016-Feb-04 23:28N 58°21' E 011°54'0 0.0
2016-Feb-04 22:28N 58°21' E 011°54'0 0.0
2016-Feb-04 21:28N 58°21' E 011°54'0 0.0
2016-Feb-04 20:28N 58°21' E 011°54'0 0.0
2016-Feb-04 19:22N 58°21' E 011°54'0 0.0
2016-Feb-04 18:28N 58°21' E 011°54'0 0.0
2016-Feb-04 17:16N 58°21' E 011°54'0 0.0
2016-Feb-04 16:28N 58°21' E 011°54'0 0.0
2016-Feb-03 01:30N 58°21' E 011°54'3 2.8
2016-Feb-03 00:33N 58°19' E 011°50'1110.7
2016-Feb-02 23:32N 58°09' E 011°50'1010.1
2016-Feb-02 22:34N 57°59' E 011°45'1212.5
2016-Feb-02 21:34N 57°51' E 011°27'1514.6
2016-Feb-02 20:34N 57°36' E 011°25'1717.4
2016-Feb-02 19:33N 57°19' E 011°32'1817.6
2016-Feb-02 18:33N 57°03' E 011°45'1717.0
2016-Feb-02 17:33N 56°47' E 011°54'3316.1
2016-Feb-02 15:32N 56°16' E 012°14'1515.4
2016-Feb-02 14:33N 56°06' E 012°34'1413.8
2016-Feb-02 13:33N 55°54' E 012°45'1110.3
2016-Feb-02 12:32N 55°44' E 012°40'0 0.1
2016-Feb-02 11:32N 55°44' E 012°39'0 0.0
2016-Feb-02 10:32N 55°44' E 012°39'0 0.0
2016-Feb-02 09:32N 55°44' E 012°39'0 0.0
2016-Feb-02 08:32N 55°44' E 012°39'1 1.1
2016-Feb-02 07:33N 55°44' E 012°41'8 8.2
2016-Feb-02 06:33N 55°36' E 012°42'4 4.4
2016-Feb-02 05:33N 55°31' E 012°43'8 7.7
2016-Feb-02 04:34N 55°24' E 012°41'1312.7
2016-Feb-02 03:33N 55°15' E 012°58'1515.4
2016-Feb-02 02:33N 55°14' E 013°25'1615.8
2016-Feb-02 01:33N 55°13' E 013°52'1514.6
2016-Feb-02 00:34N 55°14' E 014°18'1615.9
2016-Feb-01 23:33N 55°26' E 014°36'1616.0
2016-Feb-01 22:33N 55°34' E 015°01'1615.9
2016-Feb-01 21:32N 55°42' E 015°26'33616.5
2016-Feb-01 01:08N 59°35' E 022°59'1017.4
2016-Feb-01 00:33N 59°38' E 023°18'8717.3
2016-Jan-31 19:31N 59°58' E 026°06'1717.3
2016-Jan-31 18:33N 60°02' E 026°39'1616.2
2016-Jan-31 17:33N 60°02' E 027°12'1717.3
2016-Jan-31 16:33N 60°11' E 027°41'1716.5
2016-Jan-31 15:33N 60°09' E 028°14'1616.5
2016-Jan-31 14:33N 60°03' E 028°45'3210.5
2016-Jan-31 11:33N 59°58' E 029°48'1010.3
2016-Jan-31 10:33N 59°54' E 030°07'3 3.2
2016-Jan-31 09:33N 59°54' E 030°13'0 0.0
2016-Jan-31 08:32N 59°54' E 030°13'0 0.0
2016-Jan-31 07:32N 59°54' E 030°13'0 0.0
2016-Jan-31 06:31N 59°54' E 030°13'0 0.0
2016-Jan-31 05:31N 59°54' E 030°13'0 0.0
2016-Jan-31 04:31N 59°54' E 030°13'0 0.0
2016-Jan-31 03:32N 59°54' E 030°13'0 0.0
2016-Jan-31 02:31N 59°54' E 030°13'0 0.0
2016-Jan-31 01:31N 59°54' E 030°13'0 0.0
2016-Jan-31 00:31N 59°54' E 030°13'0 0.0
2016-Jan-30 23:31N 59°54' E 030°13'0 0.0
2016-Jan-30 22:31N 59°54' E 030°13'0 0.0
2016-Jan-30 21:31N 59°54' E 030°13'0 0.0
2016-Jan-30 20:31N 59°54' E 030°13'0 0.0
2016-Jan-30 19:31N 59°54' E 030°13'0 0.0
2016-Jan-30 18:31N 59°54' E 030°13'0 0.0
2016-Jan-30 17:31N 59°54' E 030°13'0 0.0
2016-Jan-30 16:31N 59°54' E 030°13'0 0.0
2016-Jan-30 15:31N 59°54' E 030°13'0 0.0
2016-Jan-30 14:31N 59°54' E 030°13'0 0.0
2016-Jan-30 13:31N 59°54' E 030°13'0 0.0
2016-Jan-30 12:31N 59°54' E 030°13'0 0.0
2016-Jan-30 11:31N 59°54' E 030°13'0 0.0
2016-Jan-30 10:31N 59°54' E 030°13'0 0.0
2016-Jan-30 09:28N 59°54' E 030°13'0 0.0
2016-Jan-30 08:31N 59°54' E 030°13'0 0.0
2016-Jan-30 07:31N 59°54' E 030°13'0 0.0
2016-Jan-30 06:31N 59°54' E 030°13'0 0.0
2016-Jan-30 05:31N 59°54' E 030°13'0 0.0
2016-Jan-30 04:31N 59°54' E 030°13'0 0.0
2016-Jan-30 03:31N 59°54' E 030°13'0 0.0
2016-Jan-30 02:31N 59°54' E 030°13'0 0.0
2016-Jan-30 01:31N 59°54' E 030°13'0 0.0
2016-Jan-30 00:31N 59°54' E 030°13'0 0.0
2016-Jan-29 23:31N 59°54' E 030°13'0 0.0
2016-Jan-29 22:31N 59°54' E 030°13'0 0.0
2016-Jan-29 21:31N 59°54' E 030°13'0 0.0
2016-Jan-29 20:31N 59°54' E 030°13'0 0.0
2016-Jan-29 19:31N 59°54' E 030°13'0 0.0
2016-Jan-29 18:31N 59°54' E 030°13'0 0.0
2016-Jan-29 17:31N 59°54' E 030°13'0 0.0
2016-Jan-29 16:31N 59°54' E 030°13'0 0.0
2016-Jan-29 15:28N 59°54' E 030°13'0 0.0
2016-Jan-29 14:31N 59°54' E 030°13'0 0.0
2016-Jan-29 13:31N 59°54' E 030°13'0 0.0
2016-Jan-29 12:31N 59°54' E 030°13'0 0.0
2016-Jan-29 11:31N 59°54' E 030°13'0 0.0
2016-Jan-29 10:31N 59°54' E 030°13'0 0.0
2016-Jan-29 09:31N 59°54' E 030°13'0 0.0
2016-Jan-29 08:31N 59°54' E 030°13'0 0.0
2016-Jan-29 07:31N 59°54' E 030°13'0 0.0
2016-Jan-29 06:31N 59°54' E 030°13'0 0.0
2016-Jan-29 05:31N 59°54' E 030°13'0 0.0
2016-Jan-29 04:31N 59°54' E 030°13'0 0.0
2016-Jan-29 03:31N 59°54' E 030°13'0 0.0
2016-Jan-29 02:31N 59°54' E 030°13'0 0.0
2016-Jan-29 01:31N 59°54' E 030°13'0 0.0
2016-Jan-29 00:31N 59°54' E 030°13'0 0.0
2016-Jan-28 23:31N 59°54' E 030°13'0 0.0
2016-Jan-28 22:31N 59°54' E 030°13'0 0.0
2016-Jan-28 21:31N 59°54' E 030°13'0 0.0
2016-Jan-28 20:31N 59°54' E 030°13'0 0.0
2016-Jan-28 19:31N 59°54' E 030°13'0 0.0
2016-Jan-28 18:31N 59°54' E 030°13'0 0.0
2016-Jan-28 17:31N 59°54' E 030°13'0 0.0
2016-Jan-28 16:31N 59°54' E 030°13'0 0.0
2016-Jan-28 15:31N 59°54' E 030°13'0 0.0
2016-Jan-28 14:31N 59°54' E 030°13'0 0.0
2016-Jan-28 13:31N 59°54' E 030°13'0 0.0
2016-Jan-28 12:31N 59°54' E 030°13'0 0.0
2016-Jan-28 11:31N 59°54' E 030°13'0 0.0
2016-Jan-28 10:31N 59°54' E 030°13'0 0.0
2016-Jan-28 09:31N 59°54' E 030°13'0 0.0
2016-Jan-28 08:31N 59°54' E 030°13'0 0.0
2016-Jan-28 07:31N 59°54' E 030°13'0 0.0
2016-Jan-28 06:31N 59°54' E 030°13'0 0.0
2016-Jan-28 05:31N 59°54' E 030°13'0 0.0
2016-Jan-28 04:31N 59°54' E 030°13'0 0.0
2016-Jan-28 03:31N 59°54' E 030°13'0 0.0
2016-Jan-28 02:31N 59°54' E 030°13'0 0.0
2016-Jan-28 01:31N 59°54' E 030°13'0 0.0
2016-Jan-28 00:31N 59°54' E 030°13'0 0.0
2016-Jan-27 23:31N 59°54' E 030°13'0 0.0
2016-Jan-27 22:31N 59°54' E 030°13'0 0.0
2016-Jan-27 21:31N 59°54' E 030°13'0 0.0
2016-Jan-27 20:31N 59°54' E 030°13'0 0.0
2016-Jan-27 19:31N 59°54' E 030°13'0 0.0
2016-Jan-27 18:31N 59°54' E 030°13'0 0.0
2016-Jan-27 17:31N 59°54' E 030°13'0 0.0
2016-Jan-27 16:31N 59°54' E 030°13'0 0.0
2016-Jan-27 15:31N 59°54' E 030°13'0 0.0
2016-Jan-27 14:31N 59°54' E 030°13'0 0.0
2016-Jan-27 13:31N 59°54' E 030°13'0 0.0
2016-Jan-27 12:31N 59°54' E 030°13'0 0.0
2016-Jan-27 11:31N 59°54' E 030°13'0 0.0
2016-Jan-27 10:31N 59°54' E 030°13'  
Track history (hours):
 
Tides and Currents Weather Stations Pressure Air Temp Water Temp Dewpoint Dewpoint Depression Visibility Wind Speed Wind Dir Waves Ship Positions

Afric Star

Last reported at 2016-Feb-06 10:31 UTC. Time now 2016-Feb-06 13:36 UTC.
Position N 58°21' E 011°54'.

Length 158 m; draft 7.2 m.

Type: Cargo ship. MMSI: 636013069.

Date/timePositionNaut miles runAvg speedWind from/ knotsBaromVisibWave heightAir tempDewpointWater temp
2016-Feb-06 10:31N 58°21' E 011°54'0 0.0
2016-Feb-06 03:19N 58°21' E 011°54'0 0.0
2016-Feb-05 15:28N 58°21' E 011°54'0 0.0
2016-Feb-05 14:28N 58°21' E 011°54'0 0.0
2016-Feb-05 10:28N 58°21' E 011°54'0 0.0
2016-Feb-05 09:28N 58°21' E 011°54'0 0.0
2016-Feb-05 08:25N 58°21' E 011°54'0 0.0
2016-Feb-05 07:28N 58°21' E 011°54'0 0.0
2016-Feb-05 06:16N 58°21' E 011°54'0 0.0
2016-Feb-05 05:28N 58°21' E 011°54'0 0.0
2016-Feb-05 04:22N 58°21' E 011°54'0 0.0
2016-Feb-05 03:31N 58°21' E 011°54'0 0.0
2016-Feb-05 02:22N 58°21' E 011°54'0 0.0
2016-Feb-05 01:28N 58°21' E 011°54'0 0.0
2016-Feb-05 00:28N 58°21' E 011°54'0 0.0
2016-Feb-04 23:28N 58°21' E 011°54'0 0.0
2016-Feb-04 22:28N 58°21' E 011°54'0 0.0
2016-Feb-04 21:28N 58°21' E 011°54'0 0.0
2016-Feb-04 20:28N 58°21' E 011°54'0 0.0
2016-Feb-04 19:22N 58°21' E 011°54'0 0.0
2016-Feb-04 18:28N 58°21' E 011°54'0 0.0
2016-Feb-04 17:16N 58°21' E 011°54'0 0.0
2016-Feb-04 16:28N 58°21' E 011°54'0 0.0
2016-Feb-03 01:30N 58°21' E 011°54'3 2.8
2016-Feb-03 00:33N 58°19' E 011°50'1110.7
2016-Feb-02 23:32N 58°09' E 011°50'1010.1
2016-Feb-02 22:34N 57°59' E 011°45'1212.5
2016-Feb-02 21:34N 57°51' E 011°27'1514.6
2016-Feb-02 20:34N 57°36' E 011°25'1717.4
2016-Feb-02 19:33N 57°19' E 011°32'1817.6
2016-Feb-02 18:33N 57°03' E 011°45'1717.0
2016-Feb-02 17:33N 56°47' E 011°54'3316.1
2016-Feb-02 15:32N 56°16' E 012°14'1515.4
2016-Feb-02 14:33N 56°06' E 012°34'1413.8
2016-Feb-02 13:33N 55°54' E 012°45'1110.3
2016-Feb-02 12:32N 55°44' E 012°40'0 0.1
2016-Feb-02 11:32N 55°44' E 012°39'0 0.0
2016-Feb-02 10:32N 55°44' E 012°39'0 0.0
2016-Feb-02 09:32N 55°44' E 012°39'0 0.0
2016-Feb-02 08:32N 55°44' E 012°39'1 1.1
2016-Feb-02 07:33N 55°44' E 012°41'8 8.2
2016-Feb-02 06:33N 55°36' E 012°42'4 4.4
2016-Feb-02 05:33N 55°31' E 012°43'8 7.7
2016-Feb-02 04:34N 55°24' E 012°41'1312.7
2016-Feb-02 03:33N 55°15' E 012°58'1515.4
2016-Feb-02 02:33N 55°14' E 013°25'1615.8
2016-Feb-02 01:33N 55°13' E 013°52'1514.6
2016-Feb-02 00:34N 55°14' E 014°18'1615.9
2016-Feb-01 23:33N 55°26' E 014°36'1616.0
2016-Feb-01 22:33N 55°34' E 015°01'1615.9
2016-Feb-01 21:32N 55°42' E 015°26'33616.5
2016-Feb-01 01:08N 59°35' E 022°59'1017.4
2016-Feb-01 00:33N 59°38' E 023°18'8717.3
2016-Jan-31 19:31N 59°58' E 026°06'1717.3
2016-Jan-31 18:33N 60°02' E 026°39'1616.2
2016-Jan-31 17:33N 60°02' E 027°12'1717.3
2016-Jan-31 16:33N 60°11' E 027°41'1716.5
2016-Jan-31 15:33N 60°09' E 028°14'1616.5
2016-Jan-31 14:33N 60°03' E 028°45'3210.5
2016-Jan-31 11:33N 59°58' E 029°48'1010.3
2016-Jan-31 10:33N 59°54' E 030°07'3 3.2
2016-Jan-31 09:33N 59°54' E 030°13'0 0.0
2016-Jan-31 08:32N 59°54' E 030°13'0 0.0
2016-Jan-31 07:32N 59°54' E 030°13'0 0.0
2016-Jan-31 06:31N 59°54' E 030°13'0 0.0
2016-Jan-31 05:31N 59°54' E 030°13'0 0.0
2016-Jan-31 04:31N 59°54' E 030°13'0 0.0
2016-Jan-31 03:32N 59°54' E 030°13'0 0.0
2016-Jan-31 02:31N 59°54' E 030°13'0 0.0
2016-Jan-31 01:31N 59°54' E 030°13'0 0.0
2016-Jan-31 00:31N 59°54' E 030°13'0 0.0
2016-Jan-30 23:31N 59°54' E 030°13'0 0.0
2016-Jan-30 22:31N 59°54' E 030°13'0 0.0
2016-Jan-30 21:31N 59°54' E 030°13'0 0.0
2016-Jan-30 20:31N 59°54' E 030°13'0 0.0
2016-Jan-30 19:31N 59°54' E 030°13'0 0.0
2016-Jan-30 18:31N 59°54' E 030°13'0 0.0
2016-Jan-30 17:31N 59°54' E 030°13'0 0.0
2016-Jan-30 16:31N 59°54' E 030°13'0 0.0
2016-Jan-30 15:31N 59°54' E 030°13'0 0.0
2016-Jan-30 14:31N 59°54' E 030°13'0 0.0
2016-Jan-30 13:31N 59°54' E 030°13'0 0.0
2016-Jan-30 12:31N 59°54' E 030°13'0 0.0
2016-Jan-30 11:31N 59°54' E 030°13'0 0.0
2016-Jan-30 10:31N 59°54' E 030°13'0 0.0
2016-Jan-30 09:28N 59°54' E 030°13'0 0.0
2016-Jan-30 08:31N 59°54' E 030°13'0 0.0
2016-Jan-30 07:31N 59°54' E 030°13'0 0.0
2016-Jan-30 06:31N 59°54' E 030°13'0 0.0
2016-Jan-30 05:31N 59°54' E 030°13'0 0.0
2016-Jan-30 04:31N 59°54' E 030°13'0 0.0
2016-Jan-30 03:31N 59°54' E 030°13'0 0.0
2016-Jan-30 02:31N 59°54' E 030°13'0 0.0
2016-Jan-30 01:31N 59°54' E 030°13'0 0.0
2016-Jan-30 00:31N 59°54' E 030°13'0 0.0
2016-Jan-29 23:31N 59°54' E 030°13'0 0.0
2016-Jan-29 22:31N 59°54' E 030°13'0 0.0
2016-Jan-29 21:31N 59°54' E 030°13'0 0.0
2016-Jan-29 20:31N 59°54' E 030°13'0 0.0
2016-Jan-29 19:31N 59°54' E 030°13'0 0.0
2016-Jan-29 18:31N 59°54' E 030°13'0 0.0
2016-Jan-29 17:31N 59°54' E 030°13'0 0.0
2016-Jan-29 16:31N 59°54' E 030°13'0 0.0
2016-Jan-29 15:28N 59°54' E 030°13'0 0.0
2016-Jan-29 14:31N 59°54' E 030°13'0 0.0
2016-Jan-29 13:31N 59°54' E 030°13'0 0.0
2016-Jan-29 12:31N 59°54' E 030°13'0 0.0
2016-Jan-29 11:31N 59°54' E 030°13'0 0.0
2016-Jan-29 10:31N 59°54' E 030°13'0 0.0
2016-Jan-29 09:31N 59°54' E 030°13'0 0.0
2016-Jan-29 08:31N 59°54' E 030°13'0 0.0
2016-Jan-29 07:31N 59°54' E 030°13'0 0.0
2016-Jan-29 06:31N 59°54' E 030°13'0 0.0
2016-Jan-29 05:31N 59°54' E 030°13'0 0.0
2016-Jan-29 04:31N 59°54' E 030°13'0 0.0
2016-Jan-29 03:31N 59°54' E 030°13'0 0.0
2016-Jan-29 02:31N 59°54' E 030°13'0 0.0
2016-Jan-29 01:31N 59°54' E 030°13'0 0.0
2016-Jan-29 00:31N 59°54' E 030°13'0 0.0
2016-Jan-28 23:31N 59°54' E 030°13'0 0.0
2016-Jan-28 22:31N 59°54' E 030°13'0 0.0
2016-Jan-28 21:31N 59°54' E 030°13'0 0.0
2016-Jan-28 20:31N 59°54' E 030°13'0 0.0
2016-Jan-28 19:31N 59°54' E 030°13'0 0.0
2016-Jan-28 18:31N 59°54' E 030°13'0 0.0
2016-Jan-28 17:31N 59°54' E 030°13'0 0.0
2016-Jan-28 16:31N 59°54' E 030°13'0 0.0
2016-Jan-28 15:31N 59°54' E 030°13'0 0.0
2016-Jan-28 14:31N 59°54' E 030°13'0 0.0
2016-Jan-28 13:31N 59°54' E 030°13'0 0.0
2016-Jan-28 12:31N 59°54' E 030°13'0 0.0
2016-Jan-28 11:31N 59°54' E 030°13'0 0.0
2016-Jan-28 10:31N 59°54' E 030°13'0 0.0
2016-Jan-28 09:31N 59°54' E 030°13'0 0.0
2016-Jan-28 08:31N 59°54' E 030°13'0 0.0
2016-Jan-28 07:31N 59°54' E 030°13'0 0.0
2016-Jan-28 06:31N 59°54' E 030°13'0 0.0
2016-Jan-28 05:31N 59°54' E 030°13'0 0.0
2016-Jan-28 04:31N 59°54' E 030°13'0 0.0
2016-Jan-28 03:31N 59°54' E 030°13'0 0.0
2016-Jan-28 02:31N 59°54' E 030°13'0 0.0
2016-Jan-28 01:31N 59°54' E 030°13'0 0.0
2016-Jan-28 00:31N 59°54' E 030°13'0 0.0
2016-Jan-27 23:31N 59°54' E 030°13'0 0.0
2016-Jan-27 22:31N 59°54' E 030°13'0 0.0
2016-Jan-27 21:31N 59°54' E 030°13'0 0.0
2016-Jan-27 20:31N 59°54' E 030°13'0 0.0
2016-Jan-27 19:31N 59°54' E 030°13'0 0.0
2016-Jan-27 18:31N 59°54' E 030°13'0 0.0
2016-Jan-27 17:31N 59°54' E 030°13'0 0.0
2016-Jan-27 16:31N 59°54' E 030°13'0 0.0
2016-Jan-27 15:31N 59°54' E 030°13'0 0.0
2016-Jan-27 14:31N 59°54' E 030°13'0 0.0
2016-Jan-27 13:31N 59°54' E 030°13'0 0.0
2016-Jan-27 12:31N 59°54' E 030°13'0 0.0
2016-Jan-27 11:31N 59°54' E 030°13'0 0.0
2016-Jan-27 10:31N 59°54' E 030°13'  

Dump ship's entire track history